Kezdőlap
METAR-TAF:

METAR-TAF

Repülőterek :

Reykjavík, Izland

földrajzi szélesség: 64-08N, földrajzi hosszúság: 021-54W, magasság: 54 m

Jelenlegi meteorológiai megfigyelések

A jelentés 49 perccel ezelõtt készült, 16:00 UTC
Északi szél 28 kt
Hőmérséklet 10°C
Páratartalom 43%
Légköri nyomás 1007 hPa
Látótávolság 10 km, vagy több
Kevés felhő 4200 lábon
Szórványos felhőzet 6400 lábon

METAR: BIRK 181600Z 36028KT 9999 FEW042 SCT064 10/M02 Q1007

Idő: 16:49 (16:49 UTC)

Előrejelzés

A jelentés 3 órával és 3 perccel ezelõtt készült, 13:46 UTC
Az előrejelzés 18-én 15 óra UTC és 19-én 15 óra UTC között érvényes
Északi szél 18 kt széllökések: 28 kt
Látótávolság 10 km, vagy több
Szórványos felhőzet 2800 lábon
18-én 23 óra UTC és 19-én 02 óra UTC között fokozatosan kialakuló
Észak-északkeleti szél 15 kt

TAF: BIRK 181346Z 1815/1915 01018G28KT 9999 SCT028 TX12/1815Z TN05/1904Z BECMG 1823/1902 02015KT

Meteorológiai megfigyelések és előrejelzések több, mint 4000 repülőtéren (METAR és TAF jelentéseket).

A térképen piros és sárga pontok jelzik az elérhető meteorológiai állomásokat.

Mozgassa az egeret a pont fölött, hogy megjelenjen az állomás neve.

Azután kattintson az időjárási megfigyelések és előrejelzések megtekintéséhez.

A térkép megváltoztatása: kattintson a fekete keresztel jelölt zöld gombra ráközelítéshez, a vonallal jelölt zöld gombra távolításhoz, vagy a zöld nyilakra a szomszédos térképek eléréséhez.


METAR-TAF: